Terminal Aerodrome Forecast
Issued by NWS

Home | Current Version | Previous Version | Text Only | Print | Product List | Glossary Off
Versions: 1 2 3 4 5 6 7 8 9 10 11 12

000
FTUS43 KICT 081722
TAFRSL
TAF
KRSL 081722Z 0818/0918 35019G27KT P6SM SCT110
     FM082300 32014KT P6SM FEW200
     FM090100 31007KT P6SM FEW250=

USA.gov is the U.S. government's official web portal to all federal, state and local government web resources and services.